Time;durP1;ratioP1;P1;durP2;ratioP2;P2;SDS_P1;SDS_P2;PMS_P1;PMS_P2;Temp;Humidity;BMP_temperature;BMP_pressure;BME280_temperature;BME280_humidity;BME280_pressure;Samples;Min_cycle;Max_cycle;Signal;HPM_P1;HPM_P2
2023/01/16 00:01:49;;;;;;;4.82;1.40;;;;;;;6.29;76.26;98488.69;5054147;28;20063;-65
2023/01/16 00:04:17;;;;;;;5.32;1.70;;;;;;;6.34;75.71;98487.66;5054333;28;20052;-65
2023/01/16 00:06:44;;;;;;;3.35;1.00;;;;;;;6.25;75.21;98482.19;5052159;28;20083;-65
2023/01/16 00:09:11;;;;;;;7.63;1.80;;;;;;;6.36;75.61;98466.81;5053792;28;20057;-65
2023/01/16 00:11:40;;;;;;;4.78;1.40;;;;;;;6.43;75.04;98471.84;5052395;28;20072;-65
2023/01/16 00:14:07;;;;;;;3.55;1.35;;;;;;;6.48;74.99;98466.09;5052996;28;20061;-65
2023/01/16 00:16:38;;;;;;;5.65;1.48;;;;;;;6.45;75.65;98469.56;5053531;28;20068;-66
2023/01/16 00:19:05;;;;;;;3.88;1.30;;;;;;;6.22;77.22;98469.84;5053903;28;20049;-64
2023/01/16 00:21:32;;;;;;;3.67;1.20;;;;;;;6.33;77.44;98452.88;5052026;28;20048;-65
2023/01/16 00:24:03;;;;;;;4.82;1.33;;;;;;;6.42;75.87;98457.19;5053507;28;20057;-65
2023/01/16 00:26:31;;;;;;;3.50;1.23;;;;;;;6.47;75.76;98451.47;5053943;28;20465;-65
2023/01/16 00:29:02;;;;;;;4.40;1.13;;;;;;;6.35;75.95;98456.13;5053509;28;20060;-65
2023/01/16 00:31:29;;;;;;;3.58;1.27;;;;;;;6.36;75.52;98450.22;5053333;28;20056;-65
2023/01/16 00:33:57;;;;;;;4.38;1.25;;;;;;;6.33;75.13;98450.91;5053543;28;20057;-65
2023/01/16 00:36:25;;;;;;;3.22;1.27;;;;;;;6.41;74.79;98441.75;5047964;28;20390;-65
2023/01/16 00:38:54;;;;;;;1.90;0.80;;;;;;;6.44;74.29;98438.31;5050492;28;20497;-65
2023/01/16 00:41:22;;;;;;;2.90;1.20;;;;;;;6.42;73.69;98420.44;5053402;28;20058;-65
2023/01/16 00:43:49;;;;;;;7.03;2.35;;;;;;;6.28;73.87;98429.00;5053234;28;20053;-61
2023/01/16 00:46:17;;;;;;;6.35;1.10;;;;;;;6.34;74.27;98443.41;5053361;28;20060;-61
2023/01/16 00:48:45;;;;;;;3.35;1.17;;;;;;;6.21;75.90;98440.56;5051562;28;20048;-61
2023/01/16 00:51:15;;;;;;;2.63;1.20;;;;;;;6.12;76.01;98423.25;5053096;28;20504;-61
2023/01/16 00:53:42;;;;;;;2.65;0.95;;;;;;;6.12;74.67;98411.38;5053028;28;20055;-61
2023/01/16 00:56:10;;;;;;;4.85;1.10;;;;;;;6.10;74.69;98417.25;5053127;28;20071;-65
2023/01/16 00:58:37;;;;;;;4.18;1.02;;;;;;;6.10;74.25;98412.53;5053059;28;20072;-65
2023/01/16 01:01:05;;;;;;;4.82;1.38;;;;;;;5.74;76.14;98412.25;5052887;28;20413;-64
2023/01/16 01:03:33;;;;;;;4.80;0.93;;;;;;;5.40;79.07;98408.50;5051424;28;20052;-64
2023/01/16 01:06:06;;;;;;;11.82;1.52;;;;;;;5.03;82.92;98399.84;5051593;28;20075;-65
2023/01/16 01:08:33;;;;;;;3.42;1.00;;;;;;;4.93;86.80;98389.97;5053013;28;20048;-65
2023/01/16 01:11:07;;;;;;;4.40;1.20;;;;;;;4.99;89.95;98396.91;5052864;28;20053;-65
2023/01/16 01:13:34;;;;;;;3.35;1.00;;;;;;;4.98;91.41;98389.78;5052882;28;20061;-65
2023/01/16 01:16:01;;;;;;;3.72;1.38;;;;;;;5.00;92.61;98383.97;5052526;28;20509;-65
2023/01/16 01:18:28;;;;;;;4.50;1.45;;;;;;;5.03;93.11;98388.81;5050935;28;20064;-66
2023/01/16 01:20:57;;;;;;;5.00;1.20;;;;;;;5.01;94.01;98375.31;5051981;28;20060;-65
2023/01/16 01:23:24;;;;;;;3.80;1.42;;;;;;;4.97;94.92;98365.28;5045604;28;20072;-66
2023/01/16 01:25:52;;;;;;;4.05;1.50;;;;;;;4.96;94.67;98360.94;5052196;28;20056;-67
2023/01/16 01:28:19;;;;;;;2.90;1.20;;;;;;;4.84;95.32;98356.88;5052685;28;20056;-66
2023/01/16 01:30:49;;;;;;;4.07;1.27;;;;;;;4.68;94.53;98356.59;5052355;28;20068;-67
2023/01/16 01:33:16;;;;;;;;;;;;;;;4.63;93.71;98344.94;5051988;28;20489;-66
2023/01/16 01:35:43;;;;;;;3.30;1.63;;;;;;;4.70;93.41;98342.47;5052809;28;19921;-67
2023/01/16 01:38:12;;;;;;;5.22;1.60;;;;;;;4.49;92.61;98339.59;5052393;28;20076;-66
2023/01/16 01:40:41;;;;;;;6.07;1.90;;;;;;;4.56;92.44;98341.88;5051305;28;20056;-66
2023/01/16 01:43:14;;;;;;;3.58;1.20;;;;;;;4.65;91.48;98339.91;5052534;28;20053;-67
2023/01/16 01:45:47;;;;;;;4.00;1.98;;;;;;;4.78;90.49;98333.38;5050527;28;20056;-68
2023/01/16 01:48:23;;;;;;;6.88;1.98;;;;;;;4.83;90.30;98330.44;5052487;28;20512;-69
2023/01/16 01:50:57;;;;;;;6.00;1.77;;;;;;;4.86;89.62;98318.75;5052424;28;20080;-68
2023/01/16 01:53:33;;;;;;;4.47;1.73;;;;;;;4.90;89.13;98318.91;5052103;28;20052;-69
2023/01/16 01:56:05;;;;;;;3.55;1.85;;;;;;;4.94;88.08;98308.84;5052180;28;20049;-68
2023/01/16 01:58:34;;;;;;;5.38;1.50;;;;;;;4.88;87.55;98302.69;5052870;28;20053;-66
2023/01/16 02:01:02;;;;;;;4.40;1.40;;;;;;;4.91;87.16;98303.97;5051863;28;20053;-67
2023/01/16 02:03:34;;;;;;;6.53;1.88;;;;;;;5.08;86.93;98301.16;5052159;28;20420;-69
2023/01/16 02:06:06;;;;;;;6.03;1.50;;;;;;;5.14;86.11;98287.94;5052851;28;20049;-67
2023/01/16 02:08:36;;;;;;;3.35;1.33;;;;;;;5.08;85.69;98286.53;5052560;28;20049;-67
2023/01/16 02:11:05;;;;;;;;;;;;;;;5.13;85.51;98272.56;5052834;28;20059;-68
2023/01/16 02:13:33;;;;;;;6.03;1.40;;;;;;;5.13;85.29;98269.78;5050443;28;19928;-67
2023/01/16 02:21:53;;;;;;;4.97;1.42;;;;;;;5.32;83.70;98241.75;5036611;28;20434;-67
2023/01/16 02:24:59;;;;;;;5.22;1.80;;;;;;;5.32;83.40;98236.25;5032307;28;20508;-67
2023/01/16 02:27:54;;;;;;;2.75;1.35;;;;;;;5.34;83.76;98233.97;5034626;28;20060;-66
2023/01/16 02:30:40;;;;;;;3.92;1.30;;;;;;;5.29;83.24;98221.16;5032104;28;20064;-67
2023/01/16 02:33:15;;;;;;;3.13;1.50;;;;;;;5.37;83.35;98218.66;5040081;28;20063;-67
2023/01/16 02:35:59;;;;;;;2.00;1.20;;;;;;;5.14;82.68;98213.44;5052265;28;20524;-67
2023/01/16 02:38:38;;;;;;;3.80;1.20;;;;;;;5.14;82.56;98205.16;5053658;28;20049;-67
2023/01/16 02:41:16;;;;;;;3.28;1.20;;;;;;;5.15;82.04;98200.47;5055963;28;20057;-67
2023/01/16 02:43:53;;;;;;;5.05;1.13;;;;;;;5.15;82.49;98194.97;5053807;28;20053;-64
2023/01/16 02:46:26;;;;;;;3.75;1.33;;;;;;;5.18;82.71;98189.56;5055499;28;20052;-65
2023/01/16 02:49:06;;;;;;;3.35;1.27;;;;;;;5.21;82.14;98199.94;5055647;28;20061;-64
2023/01/16 02:51:38;;;;;;;3.65;1.27;;;;;;;5.16;81.58;98178.06;5055491;28;20049;-64
2023/01/16 02:54:11;;;;;;;3.75;1.30;;;;;;;5.16;81.75;98180.81;5055646;28;20079;-68
2023/01/16 02:56:45;;;;;;;4.53;1.35;;;;;;;5.17;81.73;98174.16;5054529;28;20413;-66
2023/01/16 02:59:17;;;;;;;3.83;1.42;;;;;;;5.17;81.11;98170.59;5035463;28;20054;-68
2023/01/16 03:01:46;;;;;;;2.60;1.20;;;;;;;5.15;81.01;98159.88;5035499;28;20057;-68
2023/01/16 03:04:41;;;;;;;3.60;1.50;;;;;;;5.29;81.72;98160.44;5035127;28;20056;-67
2023/01/16 03:07:27;;;;;;;2.80;1.00;;;;;;;5.38;81.54;98137.47;5035156;28;20476;-67
2023/01/16 03:10:07;;;;;;;2.28;1.30;;;;;;;5.40;81.61;98138.75;5043442;28;20057;-67
2023/01/16 03:12:50;;;;;;;2.92;1.00;;;;;;;5.29;80.97;98146.63;5052432;28;20049;-66
2023/01/16 03:15:29;;;;;;;4.18;1.42;;;;;;;5.44;81.30;98133.38;5035423;28;20045;-67
2023/01/16 03:18:09;;;;;;;3.55;1.02;;;;;;;5.34;80.99;98133.78;5035539;28;20056;-67
2023/01/16 03:20:51;;;;;;;3.75;1.25;;;;;;;5.35;80.98;98118.81;5035287;28;20053;-68
2023/01/16 03:23:30;;;;;;;2.95;1.30;;;;;;;5.42;81.01;98124.63;5035452;28;20080;-67
2023/01/16 03:26:02;;;;;;;3.42;0.90;;;;;;;5.42;81.06;98119.09;5041096;28;20060;-65
2023/01/16 03:28:40;;;;;;;1.73;0.93;;;;;;;5.44;81.09;98111.28;5054594;28;20485;-67
2023/01/16 03:31:14;;;;;;;1.75;1.00;;;;;;;5.37;80.58;98106.28;5054714;28;20053;-67
2023/01/16 03:33:53;;;;;;;3.05;1.00;;;;;;;5.27;80.21;98106.69;5054649;28;20057;-67
2023/01/16 03:36:29;;;;;;;2.28;1.00;;;;;;;5.35;80.92;98108.59;5055095;28;20064;-63
2023/01/16 03:39:00;;;;;;;2.60;0.90;;;;;;;5.29;81.12;98110.75;5054387;28;20064;-63
2023/01/16 03:41:33;;;;;;;2.70;0.90;;;;;;;5.31;80.57;98101.31;5053788;28;20148;-63
2023/01/16 03:44:10;;;;;;;2.38;1.00;;;;;;;5.23;80.22;98090.03;5054324;28;20060;-63
2023/01/16 03:46:42;;;;;;;2.08;0.90;;;;;;;5.28;79.97;98081.53;5054403;28;20049;-63
2023/01/16 03:49:13;;;;;;;1.77;0.88;;;;;;;5.23;80.09;98081.75;5054352;28;20492;-63
2023/01/16 03:51:46;;;;;;;4.70;1.25;;;;;;;5.27;80.55;98082.69;5054795;28;20044;-63
2023/01/16 03:54:29;;;;;;;2.25;0.80;;;;;;;5.23;80.80;98067.94;5053525;28;20055;-63
2023/01/16 03:57:04;;;;;;;1.73;0.80;;;;;;;5.19;79.95;98071.72;5054261;28;20052;-63
2023/01/16 03:59:32;;;;;;;2.38;1.00;;;;;;;5.20;80.12;98063.09;5054273;28;20511;-63
2023/01/16 04:02:03;;;;;;;2.75;0.90;;;;;;;5.21;80.71;98050.91;5054050;28;20057;-63
2023/01/16 04:04:37;;;;;;;2.15;0.90;;;;;;;5.20;80.03;98041.00;5054051;28;20055;-63
2023/01/16 04:07:10;;;;;;;4.40;0.95;;;;;;;5.18;80.43;98035.03;5054207;28;20053;-63
2023/01/16 04:09:47;;;;;;;1.65;0.90;;;;;;;5.21;80.37;98028.03;5052516;28;20390;-63
2023/01/16 04:12:21;;;;;;;4.55;1.00;;;;;;;5.20;80.14;98026.41;5054257;28;20123;-63
2023/01/16 04:14:55;;;;;;;3.85;0.90;;;;;;;5.18;79.42;98028.72;5054013;28;20112;-63
2023/01/16 04:17:23;;;;;;;2.22;0.90;;;;;;;5.23;79.47;98015.50;5053167;28;20057;-63
2023/01/16 04:19:50;;;;;;;1.85;0.80;;;;;;;5.28;79.45;98015.28;5053676;28;20061;-63
2023/01/16 04:22:23;;;;;;;2.88;0.80;;;;;;;5.26;78.82;98005.75;5053910;28;20053;-64
2023/01/16 04:24:54;;;;;;;2.85;1.00;;;;;;;5.32;78.94;97995.31;5052187;28;20059;-63
2023/01/16 04:27:21;;;;;;;3.25;1.20;;;;;;;5.44;79.05;97985.09;5053690;28;20397;-63
2023/01/16 04:29:48;;;;;;;1.60;0.80;;;;;;;5.46;78.88;97996.59;5053499;28;20048;-64
2023/01/16 04:32:16;;;;;;;3.10;1.00;;;;;;;5.57;78.68;97983.16;5053672;28;20405;-64
2023/01/16 04:34:43;;;;;;;2.70;0.80;;;;;;;5.66;78.59;97983.06;5053644;28;20053;-63
2023/01/16 04:37:13;;;;;;;4.00;0.90;;;;;;;5.68;78.49;97978.00;5053569;28;20061;-63
2023/01/16 04:39:42;;;;;;;5.18;0.85;;;;;;;5.62;78.10;97968.31;5038935;28;20058;-64
2023/01/16 04:42:13;;;;;;;4.15;1.20;;;;;;;5.56;78.39;97953.94;5033694;28;20053;-63
2023/01/16 04:44:40;;;;;;;2.28;1.10;;;;;;;5.57;78.55;97936.22;5033497;28;20068;-63
2023/01/16 04:47:09;;;;;;;4.07;1.00;;;;;;;5.49;78.44;97935.16;5033407;28;20049;-63
2023/01/16 04:49:36;;;;;;;3.23;1.10;;;;;;;5.53;77.82;97929.78;5033380;28;20057;-63
2023/01/16 04:52:04;;;;;;;3.30;0.90;;;;;;;5.47;77.37;97944.94;5047156;28;20057;-63
2023/01/16 04:54:35;;;;;;;3.60;1.05;;;;;;;5.57;77.20;97913.34;5051883;28;20049;-63
2023/01/16 04:57:04;;;;;;;2.20;0.95;;;;;;;5.56;77.51;97908.94;5052869;28;20053;-63
2023/01/16 04:59:34;;;;;;;3.97;1.23;;;;;;;5.53;76.52;97904.94;5053244;28;20056;-63
2023/01/16 05:02:01;;;;;;;3.55;1.00;;;;;;;5.54;76.53;97898.25;5052195;28;20425;-65
2023/01/16 05:04:29;;;;;;;3.47;1.00;;;;;;;5.73;77.22;97888.59;5052073;28;20049;-65
2023/01/16 05:06:56;;;;;;;2.95;0.98;;;;;;;5.68;76.90;97884.91;5053232;28;20049;-65
2023/01/16 05:09:23;;;;;;;3.92;1.10;;;;;;;5.72;76.99;97867.66;5050331;28;20040;-65
2023/01/16 05:11:50;;;;;;;2.67;1.00;;;;;;;5.73;76.67;97860.97;5052874;28;20053;-65
2023/01/16 05:14:19;;;;;;;4.57;1.35;;;;;;;5.72;77.23;97860.16;5052619;28;20481;-65
2023/01/16 05:16:46;;;;;;;3.67;1.13;;;;;;;5.65;76.94;97844.19;5053059;28;20473;-65
2023/01/16 05:19:13;;;;;;;5.97;1.20;;;;;;;5.65;76.06;97840.63;5052885;28;20410;-65
2023/01/16 05:21:41;;;;;;;3.03;1.10;;;;;;;5.69;76.91;97831.28;5051214;28;20055;-65
2023/01/16 05:24:08;;;;;;;4.22;1.33;;;;;;;5.75;77.28;97818.03;5050970;28;20076;-65
2023/01/16 05:26:35;;;;;;;4.70;1.30;;;;;;;5.76;76.98;97813.34;5051561;28;20417;-65
2023/01/16 05:29:03;;;;;;;4.57;1.52;;;;;;;5.73;76.75;97802.97;5045142;28;20049;-65
2023/01/16 05:31:31;;;;;;;2.83;0.90;;;;;;;5.68;76.78;97804.03;5032648;28;20049;-65
2023/01/16 05:33:58;;;;;;;2.50;1.10;;;;;;;5.69;77.27;97791.81;5032830;28;20111;-65
2023/01/16 05:36:26;;;;;;;2.20;1.00;;;;;;;5.72;77.00;97790.31;5032498;28;20057;-65
2023/01/16 05:38:54;;;;;;;4.93;1.00;;;;;;;5.71;76.87;97783.97;5043761;28;20052;-65
2023/01/16 05:41:21;;;;;;;3.97;1.00;;;;;;;5.78;77.59;97781.44;5052385;28;20075;-65
2023/01/16 05:43:48;;;;;;;3.20;1.17;;;;;;;5.78;77.61;97773.16;5052410;28;20060;-65
2023/01/16 05:46:17;;;;;;;3.65;0.80;;;;;;;5.73;76.45;97754.06;5052572;28;20080;-65
2023/01/16 05:48:45;;;;;;;2.53;1.02;;;;;;;5.75;76.27;97753.72;5052294;28;20053;-66
2023/01/16 05:51:13;;;;;;;2.50;1.15;;;;;;;5.79;76.05;97752.66;5052149;28;20053;-66
2023/01/16 05:53:40;;;;;;;3.38;0.80;;;;;;;5.78;75.65;97745.53;5050018;28;20060;-66
2023/01/16 05:56:09;;;;;;;3.78;1.00;;;;;;;5.75;75.27;97746.22;5052432;28;20048;-65
2023/01/16 05:58:36;;;;;;;3.42;1.10;;;;;;;5.78;75.62;97747.50;5052242;28;20500;-66
2023/01/16 06:01:04;;;;;;;2.88;0.90;;;;;;;5.81;75.15;97735.75;5052119;28;20486;-66
2023/01/16 06:03:31;;;;;;;2.33;0.73;;;;;;;5.85;75.00;97740.22;5048615;28;20433;-66
2023/01/16 06:06:00;;;;;;;3.15;0.85;;;;;;;5.90;75.58;97728.94;5052098;28;20053;-66
2023/01/16 06:08:27;;;;;;;4.15;1.10;;;;;;;5.90;74.74;97733.66;5048142;28;20151;-66
2023/01/16 06:10:55;;;;;;;2.05;0.82;;;;;;;5.93;74.87;97723.84;5052128;28;20072;-66
2023/01/16 06:13:22;;;;;;;2.88;0.90;;;;;;;6.00;74.71;97713.81;5055600;28;20064;-66
2023/01/16 06:15:49;;;;;;;2.22;0.70;;;;;;;6.02;75.02;97702.44;5055330;28;20068;-66
2023/01/16 06:18:17;;;;;;;3.25;1.23;;;;;;;6.07;74.59;97691.94;5052569;28;20045;-66
2023/01/16 06:20:44;;;;;;;1.63;0.80;;;;;;;6.09;74.74;97677.78;5035930;28;20509;-66
2023/01/16 06:23:13;;;;;;;1.45;0.70;;;;;;;6.13;73.86;97675.88;5044224;28;20057;-66
2023/01/16 06:25:40;;;;;;;1.73;0.70;;;;;;;6.16;74.48;97666.91;5053702;28;20420;-66
2023/01/16 06:28:07;;;;;;;2.28;0.75;;;;;;;6.24;74.06;97660.41;5052328;28;20057;-67
2023/01/16 06:30:34;;;;;;;2.95;0.80;;;;;;;6.22;74.63;97642.56;5054251;28;20075;-67
2023/01/16 06:33:02;;;;;;;1.80;0.80;;;;;;;6.28;74.51;97641.16;5052241;28;20064;-66
2023/01/16 06:35:29;;;;;;;2.90;0.90;;;;;;;6.26;72.93;97633.22;5052193;28;20409;-66
2023/01/16 06:37:56;;;;;;;1.98;0.90;;;;;;;6.34;73.80;97628.69;5051841;28;20052;-67
2023/01/16 06:40:25;;;;;;;1.40;0.70;;;;;;;6.33;73.05;97624.28;5052401;28;20053;-66
2023/01/16 06:42:52;;;;;;;2.25;0.90;;;;;;;6.35;72.58;97618.41;5054147;28;20057;-67
2023/01/16 06:45:21;;;;;;;2.58;0.98;;;;;;;6.32;71.69;97619.94;5053714;28;20065;-66
2023/01/16 06:47:52;;;;;;;2.33;0.80;;;;;;;6.32;71.18;97602.53;5053098;28;20421;-66
2023/01/16 06:50:19;;;;;;;2.10;0.80;;;;;;;6.26;72.05;97615.81;5050783;28;20045;-67
2023/01/16 06:52:46;;;;;;;2.67;0.90;;;;;;;6.23;71.47;97611.00;5047700;28;20053;-66
2023/01/16 06:55:14;;;;;;;2.85;0.90;;;;;;;6.19;72.02;97599.84;5055208;28;20056;-66
2023/01/16 06:57:42;;;;;;;1.83;0.85;;;;;;;6.19;71.68;97593.53;5055379;28;20049;-66
2023/01/16 07:00:11;;;;;;;2.42;1.10;;;;;;;6.23;72.26;97600.75;5055038;28;20056;-66
2023/01/16 07:02:39;;;;;;;1.48;0.90;;;;;;;6.16;71.18;97588.72;5054964;28;20067;-66
2023/01/16 07:05:08;;;;;;;3.58;1.17;;;;;;;6.26;72.28;97582.66;5055124;28;20048;-66
2023/01/16 07:07:35;;;;;;;3.53;1.20;;;;;;;6.15;71.44;97574.06;5040863;28;20049;-66
2023/01/16 07:10:06;;;;;;;2.17;1.10;;;;;;;6.25;71.32;97564.47;5041442;28;20064;-66
2023/01/16 07:12:33;;;;;;;2.85;1.00;;;;;;;6.30;71.44;97558.69;5051979;28;20056;-66
2023/01/16 07:23:21;;;;;;;3.90;1.08;;;;;;;6.25;70.95;97501.69;5053339;28;20068;-65
2023/01/16 07:25:50;;;;;;;3.90;1.13;;;;;;;6.29;71.34;97507.31;5035093;28;20053;-65
2023/01/16 07:28:18;;;;;;;1.80;1.00;;;;;;;6.30;71.03;97489.56;5048167;28;20072;-66
2023/01/16 07:30:48;;;;;;;2.13;1.13;;;;;;;6.39;71.03;97500.44;5043770;28;20064;-66
2023/01/16 07:33:15;;;;;;;;;;;;;;;6.37;70.13;97500.78;5050955;28;20053;-66
2023/01/16 07:35:46;;;;;;;2.60;1.20;;;;;;;6.45;71.06;97485.16;5041124;28;19936;-65
2023/01/16 07:38:13;;;;;;;2.78;1.02;;;;;;;6.56;71.73;97482.63;5048019;28;20045;-65
2023/01/16 07:40:41;;;;;;;2.75;1.27;;;;;;;6.47;70.98;97477.31;5048552;28;20397;-65
2023/01/16 07:43:08;;;;;;;3.25;1.13;;;;;;;6.52;71.04;97473.47;5046154;28;20061;-65
2023/01/16 07:45:35;;;;;;;1.60;1.00;;;;;;;6.43;69.33;97465.38;5050591;28;20053;-65
2023/01/16 07:48:04;;;;;;;3.00;1.17;;;;;;;6.45;70.01;97452.78;5051118;28;20049;-65
2023/01/16 07:50:32;;;;;;;1.70;0.80;;;;;;;6.49;70.16;97439.03;5045248;28;20048;-65
2023/01/16 07:52:59;;;;;;;3.30;1.35;;;;;;;6.42;69.38;97442.44;5040645;28;20049;-66
2023/01/16 07:55:26;;;;;;;5.10;1.63;;;;;;;6.40;69.45;97430.94;5046717;28;20053;-65
2023/01/16 07:57:54;;;;;;;2.60;1.00;;;;;;;6.55;69.71;97425.72;5040977;28;20053;-65
2023/01/16 08:00:22;;;;;;;2.33;0.90;;;;;;;6.58;69.77;97419.47;5052261;28;20507;-65
2023/01/16 08:02:49;;;;;;;2.22;0.90;;;;;;;6.55;69.46;97428.47;5046244;28;20052;-66
2023/01/16 08:05:18;;;;;;;2.58;1.10;;;;;;;6.50;69.61;97415.75;5045557;28;20045;-65
2023/01/16 08:07:46;;;;;;;2.10;0.88;;;;;;;6.55;69.20;97409.94;5047708;28;20049;-65
2023/01/16 08:10:13;;;;;;;2.75;1.02;;;;;;;6.61;70.92;97396.63;5049039;28;20053;-65
2023/01/16 08:12:41;;;;;;;2.80;1.10;;;;;;;6.53;70.55;97403.16;5051241;28;20055;-65
2023/01/16 08:15:08;;;;;;;2.75;1.15;;;;;;;6.57;70.37;97392.97;5039511;28;20057;-65
2023/01/16 08:17:39;;;;;;;2.20;1.13;;;;;;;6.57;70.82;97376.38;5052803;28;20056;-65
2023/01/16 08:20:08;;;;;;;2.45;1.05;;;;;;;6.61;69.70;97366.19;5037287;28;20049;-65
2023/01/16 08:22:42;;;;;;;4.20;1.30;;;;;;;6.65;70.47;97361.53;5038805;28;20049;-65
2023/01/16 08:25:10;;;;;;;3.22;1.00;;;;;;;6.62;70.14;97351.22;5051873;28;20060;-65
2023/01/16 08:27:37;;;;;;;2.22;0.95;;;;;;;6.68;70.42;97341.47;5050960;28;20061;-65
2023/01/16 08:30:05;;;;;;;4.70;1.45;;;;;;;6.69;69.98;97331.97;5046695;28;20049;-66
2023/01/16 08:32:32;;;;;;;13.25;4.80;;;;;;;6.71;71.43;97316.63;5047231;28;20448;-64
2023/01/16 08:34:59;;;;;;;2.53;1.50;;;;;;;6.60;70.79;97312.84;5047419;28;20060;-64
2023/01/16 08:37:27;;;;;;;2.60;1.00;;;;;;;6.63;72.48;97300.25;5048967;28;20053;-64
2023/01/16 08:39:55;;;;;;;3.72;1.38;;;;;;;6.36;73.70;97319.47;5049533;28;20060;-62
2023/01/16 08:53:26;;;;;;;9.88;1.23;;;;;;;5.94;76.59;97261.34;5054390;28;20068;-63
2023/01/16 08:55:55;;;;;;;4.45;1.55;;;;;;;6.00;76.53;97259.94;5041862;28;20041;-63
2023/01/16 08:58:22;;;;;;;4.45;1.20;;;;;;;6.04;76.70;97250.53;5050430;28;20508;-63
2023/01/16 09:00:50;;;;;;;6.65;2.15;;;;;;;6.10;75.82;97249.09;5036658;28;20490;-63
2023/01/16 09:03:20;;;;;;;2.95;1.27;;;;;;;6.07;75.92;97241.53;5050196;28;20064;-62
2023/01/16 09:05:47;;;;;;;4.10;1.67;;;;;;;6.00;74.54;97240.59;5039601;28;20417;-64
2023/01/16 09:08:14;;;;;;;3.00;1.10;;;;;;;6.03;74.30;97231.59;5047870;28;20053;-63
2023/01/16 09:13:48;;;;;;;3.50;1.05;;;;;;;6.20;74.93;97235.88;5047421;28;20056;-63
2023/01/16 09:16:18;;;;;;;3.97;1.10;;;;;;;6.13;72.83;97213.59;5049068;28;20075;-62
2023/01/16 09:18:45;;;;;;;;;;;;;;;6.21;72.59;97221.66;5051805;28;20060;-62
2023/01/16 09:21:12;;;;;;;3.42;1.23;;;;;;;6.13;72.92;97206.09;5048349;28;19921;-63
2023/01/16 09:23:41;;;;;;;2.60;1.30;;;;;;;6.35;73.46;97215.63;5048483;28;20056;-62
2023/01/16 09:26:09;;;;;;;2.78;1.02;;;;;;;6.37;71.83;97202.22;5041278;28;20057;-62
2023/01/16 09:28:37;;;;;;;2.35;1.00;;;;;;;6.48;72.38;97203.22;5046924;28;20048;-62
2023/01/16 09:31:07;;;;;;;3.35;1.10;;;;;;;6.41;71.69;97189.28;5051213;28;20060;-62
2023/01/16 09:33:36;;;;;;;2.55;1.00;;;;;;;6.43;70.67;97184.19;5050665;28;20535;-62
2023/01/16 09:36:04;;;;;;;3.38;1.48;;;;;;;6.53;71.13;97187.50;5049148;28;20052;-63
2023/01/16 09:38:31;;;;;;;2.80;1.00;;;;;;;6.36;70.38;97167.44;5050357;28;20044;-62
2023/01/16 09:41:00;;;;;;;3.88;1.02;;;;;;;6.35;70.47;97176.91;5050920;28;20060;-62
2023/01/16 09:43:38;;;;;;;3.20;0.80;;;;;;;6.44;71.45;97198.78;5047898;28;20045;-62
2023/01/16 09:46:14;;;;;;;2.08;1.00;;;;;;;6.47;71.70;97168.44;5036298;28;20156;-61
2023/01/16 09:48:55;;;;;;;2.13;0.95;;;;;;;6.47;70.66;97157.41;5050375;28;20528;-61
2023/01/16 09:51:27;;;;;;;2.65;0.95;;;;;;;6.48;70.44;97158.97;5049516;28;20134;-61
2023/01/16 09:59:37;;;;;;;1.90;0.80;;;;;;;6.46;70.73;97149.47;5055637;28;20509;-62
2023/01/16 10:02:15;;;;;;;2.80;1.00;;;;;;;6.48;70.90;97156.22;5046753;28;20048;-61
2023/01/16 10:04:44;;;;;;;1.70;0.80;;;;;;;6.33;69.96;97143.31;5041557;28;20064;-62
2023/01/16 10:07:44;;;;;;;3.63;1.13;;;;;;;6.34;71.35;97130.28;5042271;28;20049;-62
2023/01/16 10:10:31;;;;;;;3.70;0.90;;;;;;;6.14;72.43;97116.53;5049554;28;20044;-62
2023/01/16 10:13:15;;;;;;;4.10;1.75;;;;;;;5.99;74.59;97118.25;5042635;28;20053;-62
2023/01/16 10:15:58;;;;;;;2.30;0.95;;;;;;;6.13;77.53;97120.44;5043692;28;20056;-62
2023/01/16 10:18:37;;;;;;;2.70;1.08;;;;;;;5.95;76.90;97108.31;5033385;28;20054;-63
2023/01/16 10:21:23;;;;;;;2.00;1.00;;;;;;;5.83;76.07;97112.00;5048751;28;20052;-62
2023/01/16 10:23:54;;;;;;;2.83;1.00;;;;;;;5.95;75.39;97119.34;5048900;28;20053;-62
2023/01/16 10:26:29;;;;;;;1.88;0.80;;;;;;;6.07;75.53;97125.50;5049596;28;20064;-64
2023/01/16 10:29:04;;;;;;;2.92;1.20;;;;;;;6.11;75.28;97097.94;5048291;28;20387;-62
2023/01/16 10:31:39;;;;;;;2.50;1.00;;;;;;;6.14;74.89;97094.44;5049626;28;20398;-63
2023/01/16 10:34:12;;;;;;;2.50;1.00;;;;;;;6.27;74.43;97095.03;5046950;28;20057;-62
2023/01/16 10:36:47;;;;;;;3.13;1.08;;;;;;;6.30;75.06;97081.28;5046669;28;20397;-62
2023/01/16 10:39:18;;;;;;;3.10;0.90;;;;;;;6.30;74.01;97102.63;5055676;28;20056;-61
2023/01/16 10:50:12;;;;;;;1.55;0.93;;;;;;;5.92;73.58;97097.94;5049691;28;20412;-61
2023/01/16 10:52:41;;;;;;;2.72;1.00;;;;;;;6.14;73.28;97090.88;5045304;28;20057;-62
2023/01/16 10:55:10;;;;;;;2.77;0.83;;;;;;;6.35;73.91;97073.84;5049936;28;20064;-61
2023/01/16 10:57:44;;;;;;;2.83;0.80;;;;;;;6.44;72.56;97066.88;5035629;28;20066;-61
2023/01/16 11:00:18;;;;;;;4.40;2.20;;;;;;;6.72;72.58;97051.91;5042213;28;20041;-62
2023/01/16 11:02:48;;;;;;;1.98;0.80;;;;;;;6.73;70.63;97053.50;5051843;28;20056;-61
2023/01/16 11:05:34;;;;;;;1.88;0.80;;;;;;;6.81;70.70;97038.59;5046082;28;20049;-62
2023/01/16 11:08:07;;;;;;;1.45;0.60;;;;;;;6.76;68.62;97041.72;5052473;28;20081;-60
2023/01/16 11:10:34;;;;;;;1.50;0.70;;;;;;;6.79;67.63;97018.81;5054888;28;20512;-62
2023/01/16 11:18:44;;;;;;;1.90;0.60;;;;;;;7.12;67.59;97022.81;5027517;28;20052;-61
2023/01/16 11:21:16;;;;;;;1.77;0.60;;;;;;;7.07;66.96;97010.06;5035281;28;20057;-61
2023/01/16 11:23:48;;;;;;;1.83;0.77;;;;;;;7.05;67.64;97003.34;5034686;28;20050;-61
2023/01/16 11:26:16;;;;;;;0.93;0.57;;;;;;;7.08;66.47;96997.06;5034920;28;20064;-61
2023/01/16 11:28:47;;;;;;;1.52;0.60;;;;;;;7.13;65.44;96985.66;5034746;28;20057;-61
2023/01/16 11:31:20;;;;;;;1.02;0.50;;;;;;;7.25;65.96;96973.53;5044974;28;20478;-61
2023/01/16 11:33:54;;;;;;;1.52;0.55;;;;;;;7.25;64.60;96990.94;5051027;28;20049;-61
2023/01/16 11:36:24;;;;;;;0.90;0.50;;;;;;;7.14;64.42;96959.59;5051137;28;20049;-60
2023/01/16 11:38:53;;;;;;;1.42;0.75;;;;;;;7.10;64.14;96959.53;5052294;28;20048;-61
2023/01/16 11:41:27;;;;;;;0.68;0.50;;;;;;;7.38;64.96;96979.59;5051840;28;20060;-61
2023/01/16 11:47:01;;;;;;;1.98;0.80;;;;;;;8.05;64.20;96937.06;5045486;28;20072;-61
2023/01/16 11:49:36;;;;;;;0.65;0.50;;;;;;;8.08;61.94;96969.56;5050668;28;20061;-60
2023/01/16 11:52:04;;;;;;;1.45;0.88;;;;;;;7.95;64.25;96933.03;5054856;28;20060;-60
2023/01/16 11:54:33;;;;;;;1.10;0.55;;;;;;;7.97;63.20;96932.66;5054058;28;20417;-62
2023/01/16 11:57:21;;;;;;;1.00;0.70;;;;;;;8.11;62.59;96914.16;5053759;28;20055;-61
2023/01/16 12:00:11;;;;;;;1.20;0.90;;;;;;;8.91;60.08;96909.84;5054154;28;20414;-61
2023/01/16 12:03:00;;;;;;;2.10;1.50;;;;;;;9.67;59.29;96889.34;5039566;28;20057;-61
2023/01/16 12:05:56;;;;;;;3.72;0.70;;;;;;;10.04;57.03;96895.72;5031796;28;20053;-61
2023/01/16 12:08:45;;;;;;;1.15;0.63;;;;;;;9.34;58.66;96883.00;5039895;28;20044;-61
2023/01/16 12:11:16;;;;;;;0.50;0.40;;;;;;;8.88;59.54;96872.56;5041307;28;20049;-62
2023/01/16 12:16:51;;;;;;;1.48;0.68;;;;;;;8.64;61.52;96862.19;5036809;28;20059;-62
2023/01/16 12:22:57;;;;;;;2.28;0.82;;;;;;;8.94;59.80;96848.81;5044563;28;20067;-62
2023/01/16 12:25:34;;;;;;;1.80;0.70;;;;;;;9.26;60.73;96847.25;5043517;28;20448;-62
2023/01/16 12:28:13;;;;;;;4.82;4.63;;;;;;;11.63;56.05;96830.56;5049267;28;20521;-62
2023/01/16 12:31:06;;;;;;;3.47;2.25;;;;;;;12.76;49.28;96809.47;5041764;28;20071;-63
2023/01/16 12:33:40;;;;;;;27.10;25.75;;;;;;;16.45;41.06;96812.50;5053213;28;20056;-62
2023/01/16 12:36:11;;;;;;;1999.90;999.90;;;;;;;19.38;35.96;96795.53;5050855;28;20060;-64
2023/01/16 12:38:51;;;;;;;14.98;14.18;;;;;;;19.11;35.07;96778.44;5052793;28;20057;-63
2023/01/16 12:44:25;;;;;;;17.23;16.50;;;;;;;20.40;32.93;96767.50;5038248;28;20049;-63
2023/01/16 12:47:07;;;;;;;19.92;19.13;;;;;;;17.71;36.35;96772.94;5045869;28;20053;-62
2023/01/16 12:49:47;;;;;;;94.82;90.80;;;;;;;19.50;32.98;96762.78;5052050;28;20049;-62
2023/01/16 12:52:30;;;;;;;2.67;0.73;;;;;;;13.74;42.63;96762.09;5052405;28;20074;-62
2023/01/16 12:55:13;;;;;;;0.63;0.40;;;;;;;11.22;48.14;96758.84;5053397;28;20049;-62
2023/01/16 12:57:59;;;;;;;0.95;0.50;;;;;;;10.31;51.02;96754.22;5051768;28;20068;-62
2023/01/16 13:00:30;;;;;;;0.90;0.60;;;;;;;9.62;53.90;96752.84;5050535;28;20064;-62
2023/01/16 13:03:01;;;;;;;1.33;0.57;;;;;;;9.30;54.35;96740.56;5032923;28;20054;-63